sensor_id;sensor_type;location;lat;lon;timestamp;P1;durP1;ratioP1;P2;durP2;ratioP2
59756;SDS011;45631;51.962;5.974;2023-10-13T00:01:24;28.92;;;19.38;;
59756;SDS011;45631;51.962;5.974;2023-10-13T00:03:53;28.73;;;20.33;;
59756;SDS011;45631;51.962;5.974;2023-10-13T00:06:21;24.02;;;18.75;;
59756;SDS011;45631;51.962;5.974;2023-10-13T00:08:49;24.25;;;19.17;;
59756;SDS011;45631;51.962;5.974;2023-10-13T00:11:17;23.70;;;17.17;;
59756;SDS011;45631;51.962;5.974;2023-10-13T00:13:49;24.73;;;16.70;;
59756;SDS011;45631;51.962;5.974;2023-10-13T00:16:18;24.17;;;15.95;;
59756;SDS011;45631;51.962;5.974;2023-10-13T00:18:49;21.55;;;15.27;;
59756;SDS011;45631;51.962;5.974;2023-10-13T00:23:58;23.45;;;16.58;;
59756;SDS011;45631;51.962;5.974;2023-10-13T00:26:31;22.58;;;15.93;;
59756;SDS011;45631;51.962;5.974;2023-10-13T00:29:04;21.20;;;15.18;;
59756;SDS011;45631;51.962;5.974;2023-10-13T00:31:45;19.58;;;15.93;;
59756;SDS011;45631;51.962;5.974;2023-10-13T00:34:15;25.40;;;16.42;;
59756;SDS011;45631;51.962;5.974;2023-10-13T00:36:47;23.30;;;15.68;;
59756;SDS011;45631;51.962;5.974;2023-10-13T00:39:37;20.35;;;15.90;;
59756;SDS011;45631;51.962;5.974;2023-10-13T00:42:12;24.30;;;16.42;;
59756;SDS011;45631;51.962;5.974;2023-10-13T00:44:48;20.35;;;15.18;;
59756;SDS011;45631;51.962;5.974;2023-10-13T00:47:16;21.45;;;15.05;;
59756;SDS011;45631;51.962;5.974;2023-10-13T00:50:04;21.73;;;15.32;;
59756;SDS011;45631;51.962;5.974;2023-10-13T00:52:37;20.75;;;14.75;;
59756;SDS011;45631;51.962;5.974;2023-10-13T00:55:08;18.88;;;14.70;;
59756;SDS011;45631;51.962;5.974;2023-10-13T00:57:38;22.05;;;14.85;;
59756;SDS011;45631;51.962;5.974;2023-10-13T01:00:09;23.35;;;15.52;;
59756;SDS011;45631;51.962;5.974;2023-10-13T01:02:46;22.58;;;15.07;;
59756;SDS011;45631;51.962;5.974;2023-10-13T01:05:22;21.05;;;14.27;;
59756;SDS011;45631;51.962;5.974;2023-10-13T01:07:51;19.77;;;13.70;;
59756;SDS011;45631;51.962;5.974;2023-10-13T01:10:23;23.48;;;13.95;;
59756;SDS011;45631;51.962;5.974;2023-10-13T01:12:56;19.05;;;14.32;;
59756;SDS011;45631;51.962;5.974;2023-10-13T01:15:27;20.63;;;13.85;;
59756;SDS011;45631;51.962;5.974;2023-10-13T01:18:08;21.70;;;14.55;;
59756;SDS011;45631;51.962;5.974;2023-10-13T01:20:38;19.98;;;14.18;;
59756;SDS011;45631;51.962;5.974;2023-10-13T01:23:13;19.33;;;13.77;;
59756;SDS011;45631;51.962;5.974;2023-10-13T01:25:45;22.90;;;13.93;;
59756;SDS011;45631;51.962;5.974;2023-10-13T01:28:14;22.50;;;14.30;;
59756;SDS011;45631;51.962;5.974;2023-10-13T01:30:43;23.15;;;13.57;;
59756;SDS011;45631;51.962;5.974;2023-10-13T01:33:17;24.05;;;12.90;;
59756;SDS011;45631;51.962;5.974;2023-10-13T01:35:52;17.67;;;13.43;;
59756;SDS011;45631;51.962;5.974;2023-10-13T01:38:23;20.35;;;13.57;;
59756;SDS011;45631;51.962;5.974;2023-10-13T01:40:54;22.33;;;12.77;;
59756;SDS011;45631;51.962;5.974;2023-10-13T01:43:25;19.73;;;13.52;;
59756;SDS011;45631;51.962;5.974;2023-10-13T01:45:52;19.58;;;13.38;;
59756;SDS011;45631;51.962;5.974;2023-10-13T01:48:23;19.63;;;13.65;;
59756;SDS011;45631;51.962;5.974;2023-10-13T01:50:56;19.33;;;13.38;;
59756;SDS011;45631;51.962;5.974;2023-10-13T01:53:30;19.45;;;11.85;;
59756;SDS011;45631;51.962;5.974;2023-10-13T01:55:57;16.27;;;11.95;;
59756;SDS011;45631;51.962;5.974;2023-10-13T01:58:26;18.10;;;11.70;;
59756;SDS011;45631;51.962;5.974;2023-10-13T02:00:55;19.23;;;12.70;;
59756;SDS011;45631;51.962;5.974;2023-10-13T02:03:23;18.42;;;11.68;;
59756;SDS011;45631;51.962;5.974;2023-10-13T02:05:54;20.40;;;11.98;;
59756;SDS011;45631;51.962;5.974;2023-10-13T02:08:24;15.95;;;10.57;;
59756;SDS011;45631;51.962;5.974;2023-10-13T02:10:54;16.38;;;10.90;;
59756;SDS011;45631;51.962;5.974;2023-10-13T02:13:23;16.83;;;10.60;;
59756;SDS011;45631;51.962;5.974;2023-10-13T02:15:55;15.65;;;10.88;;
59756;SDS011;45631;51.962;5.974;2023-10-13T02:18:24;18.35;;;10.68;;
59756;SDS011;45631;51.962;5.974;2023-10-13T02:21:02;17.35;;;11.18;;
59756;SDS011;45631;51.962;5.974;2023-10-13T02:23:31;14.68;;;10.43;;
59756;SDS011;45631;51.962;5.974;2023-10-13T02:26:00;19.00;;;11.23;;
59756;SDS011;45631;51.962;5.974;2023-10-13T02:28:29;18.17;;;10.88;;
59756;SDS011;45631;51.962;5.974;2023-10-13T02:31:01;17.17;;;10.00;;
59756;SDS011;45631;51.962;5.974;2023-10-13T02:33:30;18.17;;;10.32;;
59756;SDS011;45631;51.962;5.974;2023-10-13T02:35:58;15.82;;;9.98;;
59756;SDS011;45631;51.962;5.974;2023-10-13T02:38:30;16.25;;;9.65;;
59756;SDS011;45631;51.962;5.974;2023-10-13T02:41:02;16.00;;;9.13;;
59756;SDS011;45631;51.962;5.974;2023-10-13T02:43:33;16.63;;;9.27;;
59756;SDS011;45631;51.962;5.974;2023-10-13T02:46:01;15.02;;;8.18;;
59756;SDS011;45631;51.962;5.974;2023-10-13T02:48:29;12.80;;;8.32;;
59756;SDS011;45631;51.962;5.974;2023-10-13T02:51:06;12.82;;;8.25;;
59756;SDS011;45631;51.962;5.974;2023-10-13T02:53:42;13.05;;;8.38;;
59756;SDS011;45631;51.962;5.974;2023-10-13T02:56:17;14.20;;;8.52;;
59756;SDS011;45631;51.962;5.974;2023-10-13T02:58:48;17.13;;;8.52;;
59756;SDS011;45631;51.962;5.974;2023-10-13T03:01:23;19.02;;;9.00;;
59756;SDS011;45631;51.962;5.974;2023-10-13T03:03:54;14.52;;;7.78;;
59756;SDS011;45631;51.962;5.974;2023-10-13T03:06:25;17.50;;;7.65;;
59756;SDS011;45631;51.962;5.974;2023-10-13T03:09:00;13.93;;;8.40;;
59756;SDS011;45631;51.962;5.974;2023-10-13T03:11:42;12.00;;;8.27;;
59756;SDS011;45631;51.962;5.974;2023-10-13T03:14:15;14.38;;;8.15;;
59756;SDS011;45631;51.962;5.974;2023-10-13T03:16:52;15.75;;;7.70;;
59756;SDS011;45631;51.962;5.974;2023-10-13T03:19:20;13.25;;;7.88;;
59756;SDS011;45631;51.962;5.974;2023-10-13T03:21:49;20.15;;;8.60;;
59756;SDS011;45631;51.962;5.974;2023-10-13T03:24:21;15.85;;;8.85;;
59756;SDS011;45631;51.962;5.974;2023-10-13T03:27:02;14.57;;;8.27;;
59756;SDS011;45631;51.962;5.974;2023-10-13T03:29:36;11.85;;;7.70;;
59756;SDS011;45631;51.962;5.974;2023-10-13T03:32:03;14.05;;;7.90;;
59756;SDS011;45631;51.962;5.974;2023-10-13T03:34:38;15.98;;;8.32;;
59756;SDS011;45631;51.962;5.974;2023-10-13T03:40:05;18.15;;;8.77;;
59756;SDS011;45631;51.962;5.974;2023-10-13T03:42:56;15.40;;;8.73;;
59756;SDS011;45631;51.962;5.974;2023-10-13T03:45:32;14.23;;;8.30;;
59756;SDS011;45631;51.962;5.974;2023-10-13T03:50:36;13.30;;;8.83;;
59756;SDS011;45631;51.962;5.974;2023-10-13T03:53:12;18.83;;;9.27;;
59756;SDS011;45631;51.962;5.974;2023-10-13T03:55:41;21.25;;;10.07;;
59756;SDS011;45631;51.962;5.974;2023-10-13T03:58:16;17.70;;;10.93;;
59756;SDS011;45631;51.962;5.974;2023-10-13T04:00:44;20.65;;;11.98;;
59756;SDS011;45631;51.962;5.974;2023-10-13T04:03:12;20.30;;;12.48;;
59756;SDS011;45631;51.962;5.974;2023-10-13T04:05:44;18.33;;;11.93;;
59756;SDS011;45631;51.962;5.974;2023-10-13T04:08:27;17.00;;;11.73;;
59756;SDS011;45631;51.962;5.974;2023-10-13T04:11:34;21.73;;;12.45;;
59756;SDS011;45631;51.962;5.974;2023-10-13T04:14:38;17.25;;;11.45;;
59756;SDS011;45631;51.962;5.974;2023-10-13T04:17:24;17.98;;;11.57;;
59756;SDS011;45631;51.962;5.974;2023-10-13T04:19:56;20.08;;;10.82;;
59756;SDS011;45631;51.962;5.974;2023-10-13T04:25:22;17.77;;;11.25;;
59756;SDS011;45631;51.962;5.974;2023-10-13T04:28:06;19.40;;;10.48;;
59756;SDS011;45631;51.962;5.974;2023-10-13T04:30:45;18.40;;;10.13;;
59756;SDS011;45631;51.962;5.974;2023-10-13T04:33:26;17.50;;;11.90;;
59756;SDS011;45631;51.962;5.974;2023-10-13T04:36:10;15.38;;;9.95;;
59756;SDS011;45631;51.962;5.974;2023-10-13T04:38:43;18.60;;;9.45;;
59756;SDS011;45631;51.962;5.974;2023-10-13T04:41:24;17.20;;;10.02;;
59756;SDS011;45631;51.962;5.974;2023-10-13T04:43:58;16.75;;;10.27;;
59756;SDS011;45631;51.962;5.974;2023-10-13T04:46:32;17.23;;;9.80;;
59756;SDS011;45631;51.962;5.974;2023-10-13T04:49:07;16.85;;;10.50;;
59756;SDS011;45631;51.962;5.974;2023-10-13T04:51:53;20.15;;;11.57;;
59756;SDS011;45631;51.962;5.974;2023-10-13T04:54:39;22.10;;;11.90;;
59756;SDS011;45631;51.962;5.974;2023-10-13T04:57:12;20.58;;;13.30;;
59756;SDS011;45631;51.962;5.974;2023-10-13T04:59:58;20.95;;;13.75;;
59756;SDS011;45631;51.962;5.974;2023-10-13T05:02:54;25.27;;;15.80;;
59756;SDS011;45631;51.962;5.974;2023-10-13T05:05:43;21.70;;;16.13;;
59756;SDS011;45631;51.962;5.974;2023-10-13T05:08:28;25.23;;;16.60;;
59756;SDS011;45631;51.962;5.974;2023-10-13T05:11:13;23.55;;;17.45;;
59756;SDS011;45631;51.962;5.974;2023-10-13T05:13:59;29.85;;;18.73;;
59756;SDS011;45631;51.962;5.974;2023-10-13T05:16:44;27.67;;;18.50;;
59756;SDS011;45631;51.962;5.974;2023-10-13T05:19:31;26.27;;;17.25;;
59756;SDS011;45631;51.962;5.974;2023-10-13T05:22:16;28.08;;;17.27;;
59756;SDS011;45631;51.962;5.974;2023-10-13T05:25:02;26.23;;;16.88;;
59756;SDS011;45631;51.962;5.974;2023-10-13T05:27:48;25.67;;;16.13;;
59756;SDS011;45631;51.962;5.974;2023-10-13T05:30:41;26.42;;;15.82;;
59756;SDS011;45631;51.962;5.974;2023-10-13T05:33:27;27.00;;;15.73;;
59756;SDS011;45631;51.962;5.974;2023-10-13T05:36:14;27.02;;;15.48;;
59756;SDS011;45631;51.962;5.974;2023-10-13T05:38:59;22.55;;;14.55;;
59756;SDS011;45631;51.962;5.974;2023-10-13T05:41:45;23.65;;;14.27;;
59756;SDS011;45631;51.962;5.974;2023-10-13T05:44:31;22.88;;;13.30;;
59756;SDS011;45631;51.962;5.974;2023-10-13T05:47:07;20.10;;;13.18;;
59756;SDS011;45631;51.962;5.974;2023-10-13T05:50:01;21.40;;;13.02;;
59756;SDS011;45631;51.962;5.974;2023-10-13T05:52:42;17.52;;;11.57;;
59756;SDS011;45631;51.962;5.974;2023-10-13T05:55:31;18.75;;;10.43;;
59756;SDS011;45631;51.962;5.974;2023-10-13T05:58:16;14.93;;;10.27;;
59756;SDS011;45631;51.962;5.974;2023-10-13T06:01:02;15.70;;;10.60;;
59756;SDS011;45631;51.962;5.974;2023-10-13T06:03:47;16.75;;;10.50;;
59756;SDS011;45631;51.962;5.974;2023-10-13T06:06:33;17.13;;;10.07;;
59756;SDS011;45631;51.962;5.974;2023-10-13T06:09:20;15.48;;;10.15;;
59756;SDS011;45631;51.962;5.974;2023-10-13T06:12:08;14.15;;;9.50;;
59756;SDS011;45631;51.962;5.974;2023-10-13T06:14:53;14.65;;;9.48;;
59756;SDS011;45631;51.962;5.974;2023-10-13T06:17:39;16.40;;;10.23;;
59756;SDS011;45631;51.962;5.974;2023-10-13T06:20:27;15.15;;;9.73;;
59756;SDS011;45631;51.962;5.974;2023-10-13T06:23:12;14.55;;;9.60;;
59756;SDS011;45631;51.962;5.974;2023-10-13T06:26:02;14.48;;;8.43;;
59756;SDS011;45631;51.962;5.974;2023-10-13T06:28:47;16.90;;;10.05;;
59756;SDS011;45631;51.962;5.974;2023-10-13T06:31:16;13.90;;;8.85;;
59756;SDS011;45631;51.962;5.974;2023-10-13T06:33:49;16.08;;;8.88;;
59756;SDS011;45631;51.962;5.974;2023-10-13T06:36:17;16.40;;;9.20;;
59756;SDS011;45631;51.962;5.974;2023-10-13T06:38:46;14.90;;;8.90;;
59756;SDS011;45631;51.962;5.974;2023-10-13T06:41:23;14.05;;;8.23;;
59756;SDS011;45631;51.962;5.974;2023-10-13T06:43:58;12.93;;;8.20;;
59756;SDS011;45631;51.962;5.974;2023-10-13T06:46:32;14.20;;;8.57;;
59756;SDS011;45631;51.962;5.974;2023-10-13T06:49:01;16.92;;;8.25;;
59756;SDS011;45631;51.962;5.974;2023-10-13T06:51:30;13.68;;;7.60;;
59756;SDS011;45631;51.962;5.974;2023-10-13T06:54:05;13.48;;;8.10;;
59756;SDS011;45631;51.962;5.974;2023-10-13T06:56:47;11.68;;;7.65;;
59756;SDS011;45631;51.962;5.974;2023-10-13T06:59:19;15.55;;;8.75;;
59756;SDS011;45631;51.962;5.974;2023-10-13T07:01:53;13.30;;;7.65;;
59756;SDS011;45631;51.962;5.974;2023-10-13T07:04:46;12.70;;;7.68;;
59756;SDS011;45631;51.962;5.974;2023-10-13T07:07:14;14.40;;;7.40;;
59756;SDS011;45631;51.962;5.974;2023-10-13T07:09:42;13.00;;;8.25;;
59756;SDS011;45631;51.962;5.974;2023-10-13T07:12:19;11.75;;;7.53;;
59756;SDS011;45631;51.962;5.974;2023-10-13T07:14:52;13.27;;;8.02;;
59756;SDS011;45631;51.962;5.974;2023-10-13T07:17:26;13.38;;;8.07;;
59756;SDS011;45631;51.962;5.974;2023-10-13T07:19:59;13.25;;;8.43;;
59756;SDS011;45631;51.962;5.974;2023-10-13T07:22:41;13.95;;;7.85;;
59756;SDS011;45631;51.962;5.974;2023-10-13T07:25:22;12.50;;;7.40;;
59756;SDS011;45631;51.962;5.974;2023-10-13T07:27:54;13.40;;;7.57;;
59756;SDS011;45631;51.962;5.974;2023-10-13T07:30:26;16.92;;;8.52;;
59756;SDS011;45631;51.962;5.974;2023-10-13T07:32:57;17.10;;;7.88;;
59756;SDS011;45631;51.962;5.974;2023-10-13T07:35:26;12.75;;;7.57;;
59756;SDS011;45631;51.962;5.974;2023-10-13T07:37:58;12.40;;;7.40;;
59756;SDS011;45631;51.962;5.974;2023-10-13T07:40:29;15.65;;;7.35;;
59756;SDS011;45631;51.962;5.974;2023-10-13T07:43:18;11.07;;;7.82;;
59756;SDS011;45631;51.962;5.974;2023-10-13T07:45:49;16.23;;;7.60;;
59756;SDS011;45631;51.962;5.974;2023-10-13T07:48:20;16.40;;;7.80;;
59756;SDS011;45631;51.962;5.974;2023-10-13T07:50:58;14.30;;;8.10;;
59756;SDS011;45631;51.962;5.974;2023-10-13T07:53:29;16.02;;;7.43;;
59756;SDS011;45631;51.962;5.974;2023-10-13T07:56:02;15.88;;;7.60;;
59756;SDS011;45631;51.962;5.974;2023-10-13T07:58:33;18.10;;;8.18;;
59756;SDS011;45631;51.962;5.974;2023-10-13T08:01:02;16.08;;;7.18;;
59756;SDS011;45631;51.962;5.974;2023-10-13T08:03:44;16.25;;;7.78;;
59756;SDS011;45631;51.962;5.974;2023-10-13T08:06:13;17.02;;;7.35;;
59756;SDS011;45631;51.962;5.974;2023-10-13T08:08:52;14.07;;;7.32;;
59756;SDS011;45631;51.962;5.974;2023-10-13T08:11:35;18.95;;;7.55;;
59756;SDS011;45631;51.962;5.974;2023-10-13T08:14:05;18.85;;;6.97;;
59756;SDS011;45631;51.962;5.974;2023-10-13T08:17:04;15.20;;;7.18;;
59756;SDS011;45631;51.962;5.974;2023-10-13T08:19:35;18.08;;;7.22;;
59756;SDS011;45631;51.962;5.974;2023-10-13T08:22:12;15.70;;;7.10;;
59756;SDS011;45631;51.962;5.974;2023-10-13T08:25:02;19.02;;;7.15;;
59756;SDS011;45631;51.962;5.974;2023-10-13T08:27:47;16.08;;;8.07;;
59756;SDS011;45631;51.962;5.974;2023-10-13T08:30:53;15.13;;;7.22;;
59756;SDS011;45631;51.962;5.974;2023-10-13T08:33:22;14.48;;;7.32;;
59756;SDS011;45631;51.962;5.974;2023-10-13T08:35:54;15.73;;;7.40;;
59756;SDS011;45631;51.962;5.974;2023-10-13T08:38:32;16.67;;;7.35;;
59756;SDS011;45631;51.962;5.974;2023-10-13T08:41:18;18.77;;;8.20;;
59756;SDS011;45631;51.962;5.974;2023-10-13T08:44:01;16.88;;;7.03;;
59756;SDS011;45631;51.962;5.974;2023-10-13T08:46:32;16.30;;;7.72;;
59756;SDS011;45631;51.962;5.974;2023-10-13T08:49:15;15.90;;;7.45;;
59756;SDS011;45631;51.962;5.974;2023-10-13T08:51:44;17.40;;;7.07;;
59756;SDS011;45631;51.962;5.974;2023-10-13T08:54:16;17.48;;;7.25;;
59756;SDS011;45631;51.962;5.974;2023-10-13T08:57:01;22.90;;;7.60;;
59756;SDS011;45631;51.962;5.974;2023-10-13T09:00:00;18.38;;;6.43;;
59756;SDS011;45631;51.962;5.974;2023-10-13T09:02:46;18.55;;;6.93;;
59756;SDS011;45631;51.962;5.974;2023-10-13T09:05:43;17.48;;;7.03;;
59756;SDS011;45631;51.962;5.974;2023-10-13T09:08:28;15.98;;;6.63;;
59756;SDS011;45631;51.962;5.974;2023-10-13T09:11:02;17.70;;;6.53;;
59756;SDS011;45631;51.962;5.974;2023-10-13T09:13:39;15.13;;;6.60;;
59756;SDS011;45631;51.962;5.974;2023-10-13T09:16:13;17.42;;;6.78;;
59756;SDS011;45631;51.962;5.974;2023-10-13T09:18:50;14.25;;;6.30;;
59756;SDS011;45631;51.962;5.974;2023-10-13T09:21:19;17.02;;;6.43;;
59756;SDS011;45631;51.962;5.974;2023-10-13T09:24:13;16.23;;;6.57;;
59756;SDS011;45631;51.962;5.974;2023-10-13T09:26:49;16.90;;;6.80;;
59756;SDS011;45631;51.962;5.974;2023-10-13T09:29:23;14.05;;;6.30;;
59756;SDS011;45631;51.962;5.974;2023-10-13T09:31:59;14.10;;;6.57;;
59756;SDS011;45631;51.962;5.974;2023-10-13T09:34:31;15.63;;;6.25;;
59756;SDS011;45631;51.962;5.974;2023-10-13T09:37:02;14.95;;;5.90;;
59756;SDS011;45631;51.962;5.974;2023-10-13T09:39:31;18.52;;;6.25;;
59756;SDS011;45631;51.962;5.974;2023-10-13T09:42:12;16.88;;;7.00;;
59756;SDS011;45631;51.962;5.974;2023-10-13T09:44:44;13.80;;;5.82;;
59756;SDS011;45631;51.962;5.974;2023-10-13T09:47:20;12.60;;;6.10;;
59756;SDS011;45631;51.962;5.974;2023-10-13T09:50:00;16.95;;;6.45;;
59756;SDS011;45631;51.962;5.974;2023-10-13T09:52:32;16.33;;;5.88;;
59756;SDS011;45631;51.962;5.974;2023-10-13T09:55:16;18.67;;;5.97;;
59756;SDS011;45631;51.962;5.974;2023-10-13T09:57:51;15.77;;;6.00;;
59756;SDS011;45631;51.962;5.974;2023-10-13T10:00:28;17.00;;;6.20;;
59756;SDS011;45631;51.962;5.974;2023-10-13T10:03:13;13.18;;;6.40;;
59756;SDS011;45631;51.962;5.974;2023-10-13T10:06:00;19.88;;;6.13;;
59756;SDS011;45631;51.962;5.974;2023-10-13T10:08:42;15.75;;;6.00;;
59756;SDS011;45631;51.962;5.974;2023-10-13T10:14:07;14.45;;;6.03;;
59756;SDS011;45631;51.962;5.974;2023-10-13T10:16:47;14.98;;;5.85;;
59756;SDS011;45631;51.962;5.974;2023-10-13T10:19:30;15.45;;;5.82;;
59756;SDS011;45631;51.962;5.974;2023-10-13T10:22:04;14.70;;;6.85;;
59756;SDS011;45631;51.962;5.974;2023-10-13T10:24:43;16.80;;;6.43;;
59756;SDS011;45631;51.962;5.974;2023-10-13T10:27:13;16.52;;;6.35;;
59756;SDS011;45631;51.962;5.974;2023-10-13T10:29:54;13.02;;;7.07;;
59756;SDS011;45631;51.962;5.974;2023-10-13T10:32:31;13.18;;;5.70;;
59756;SDS011;45631;51.962;5.974;2023-10-13T10:35:02;15.13;;;5.43;;
59756;SDS011;45631;51.962;5.974;2023-10-13T10:37:43;15.88;;;5.82;;
59756;SDS011;45631;51.962;5.974;2023-10-13T10:40:16;15.93;;;5.45;;
59756;SDS011;45631;51.962;5.974;2023-10-13T10:43:00;14.25;;;5.95;;
59756;SDS011;45631;51.962;5.974;2023-10-13T10:45:54;17.10;;;6.35;;
59756;SDS011;45631;51.962;5.974;2023-10-13T10:48:26;16.08;;;6.05;;
59756;SDS011;45631;51.962;5.974;2023-10-13T10:51:01;16.75;;;6.35;;
59756;SDS011;45631;51.962;5.974;2023-10-13T10:53:42;12.95;;;5.97;;
59756;SDS011;45631;51.962;5.974;2023-10-13T10:56:13;18.08;;;6.53;;
59756;SDS011;45631;51.962;5.974;2023-10-13T10:58:53;13.00;;;5.20;;
59756;SDS011;45631;51.962;5.974;2023-10-13T11:01:27;19.63;;;6.63;;
59756;SDS011;45631;51.962;5.974;2023-10-13T11:04:05;16.75;;;5.95;;
59756;SDS011;45631;51.962;5.974;2023-10-13T11:06:46;14.23;;;6.00;;
59756;SDS011;45631;51.962;5.974;2023-10-13T11:09:23;16.02;;;6.32;;
59756;SDS011;45631;51.962;5.974;2023-10-13T11:12:08;14.90;;;5.70;;
59756;SDS011;45631;51.962;5.974;2023-10-13T11:14:42;16.52;;;6.07;;
59756;SDS011;45631;51.962;5.974;2023-10-13T11:17:18;16.65;;;6.20;;
59756;SDS011;45631;51.962;5.974;2023-10-13T11:19:52;13.48;;;6.53;;
59756;SDS011;45631;51.962;5.974;2023-10-13T11:22:22;14.05;;;6.00;;
59756;SDS011;45631;51.962;5.974;2023-10-13T11:25:09;16.05;;;6.68;;
59756;SDS011;45631;51.962;5.974;2023-10-13T11:27:38;15.82;;;6.22;;
59756;SDS011;45631;51.962;5.974;2023-10-13T11:30:23;18.15;;;6.40;;
59756;SDS011;45631;51.962;5.974;2023-10-13T11:32:57;13.38;;;5.60;;
59756;SDS011;45631;51.962;5.974;2023-10-13T11:35:25;13.73;;;5.72;;
59756;SDS011;45631;51.962;5.974;2023-10-13T11:38:15;15.25;;;6.03;;
59756;SDS011;45631;51.962;5.974;2023-10-13T11:40:56;15.95;;;5.90;;
59756;SDS011;45631;51.962;5.974;2023-10-13T11:43:42;14.20;;;5.78;;
59756;SDS011;45631;51.962;5.974;2023-10-13T11:46:28;16.23;;;5.97;;
59756;SDS011;45631;51.962;5.974;2023-10-13T11:49:14;15.93;;;6.35;;
59756;SDS011;45631;51.962;5.974;2023-10-13T11:51:46;15.73;;;5.82;;
59756;SDS011;45631;51.962;5.974;2023-10-13T11:54:18;17.80;;;6.47;;
59756;SDS011;45631;51.962;5.974;2023-10-13T11:56:50;16.38;;;6.13;;
59756;SDS011;45631;51.962;5.974;2023-10-13T11:59:18;15.45;;;6.07;;
59756;SDS011;45631;51.962;5.974;2023-10-13T12:01:51;17.65;;;6.05;;
59756;SDS011;45631;51.962;5.974;2023-10-13T12:04:38;16.05;;;6.30;;
59756;SDS011;45631;51.962;5.974;2023-10-13T12:07:18;13.75;;;5.95;;
59756;SDS011;45631;51.962;5.974;2023-10-13T12:09:48;19.75;;;6.65;;
59756;SDS011;45631;51.962;5.974;2023-10-13T12:12:34;16.55;;;6.05;;
59756;SDS011;45631;51.962;5.974;2023-10-13T12:15:09;17.30;;;6.07;;
59756;SDS011;45631;51.962;5.974;2023-10-13T12:17:41;16.23;;;6.10;;
59756;SDS011;45631;51.962;5.974;2023-10-13T12:20:12;17.77;;;6.25;;
59756;SDS011;45631;51.962;5.974;2023-10-13T12:22:51;16.60;;;6.40;;
59756;SDS011;45631;51.962;5.974;2023-10-13T12:25:22;19.63;;;6.38;;
59756;SDS011;45631;51.962;5.974;2023-10-13T12:28:12;14.95;;;6.20;;
59756;SDS011;45631;51.962;5.974;2023-10-13T12:30:45;18.30;;;7.00;;
59756;SDS011;45631;51.962;5.974;2023-10-13T12:33:16;18.67;;;6.68;;
59756;SDS011;45631;51.962;5.974;2023-10-13T12:35:57;16.10;;;6.43;;
59756;SDS011;45631;51.962;5.974;2023-10-13T12:38:33;19.42;;;6.93;;
59756;SDS011;45631;51.962;5.974;2023-10-13T12:41:18;17.65;;;5.90;;
59756;SDS011;45631;51.962;5.974;2023-10-13T12:44:05;16.75;;;6.05;;
59756;SDS011;45631;51.962;5.974;2023-10-13T12:46:51;22.10;;;6.45;;
59756;SDS011;45631;51.962;5.974;2023-10-13T12:49:38;18.45;;;6.90;;
59756;SDS011;45631;51.962;5.974;2023-10-13T12:52:16;14.48;;;6.70;;
59756;SDS011;45631;51.962;5.974;2023-10-13T12:54:46;14.73;;;6.32;;
59756;SDS011;45631;51.962;5.974;2023-10-13T12:57:25;15.75;;;5.85;;
59756;SDS011;45631;51.962;5.974;2023-10-13T12:59:56;18.60;;;6.13;;
59756;SDS011;45631;51.962;5.974;2023-10-13T13:02:24;15.18;;;6.25;;
59756;SDS011;45631;51.962;5.974;2023-10-13T13:04:55;18.38;;;6.40;;
59756;SDS011;45631;51.962;5.974;2023-10-13T13:07:32;17.35;;;6.32;;
59756;SDS011;45631;51.962;5.974;2023-10-13T13:10:10;18.20;;;6.28;;
59756;SDS011;45631;51.962;5.974;2023-10-13T13:12:40;18.63;;;5.60;;
59756;SDS011;45631;51.962;5.974;2023-10-13T13:15:10;16.77;;;5.88;;
59756;SDS011;45631;51.962;5.974;2023-10-13T13:17:39;16.83;;;6.18;;
59756;SDS011;45631;51.962;5.974;2023-10-13T13:20:08;16.42;;;5.88;;
59756;SDS011;45631;51.962;5.974;2023-10-13T13:22:52;17.02;;;5.88;;
59756;SDS011;45631;51.962;5.974;2023-10-13T13:25:21;16.75;;;6.10;;
59756;SDS011;45631;51.962;5.974;2023-10-13T13:27:57;15.98;;;5.95;;
59756;SDS011;45631;51.962;5.974;2023-10-13T13:30:33;17.75;;;6.07;;
59756;SDS011;45631;51.962;5.974;2023-10-13T13:33:01;26.58;;;6.15;;
59756;SDS011;45631;51.962;5.974;2023-10-13T13:35:36;16.92;;;6.30;;
59756;SDS011;45631;51.962;5.974;2023-10-13T13:38:05;15.10;;;5.72;;
59756;SDS011;45631;51.962;5.974;2023-10-13T13:40:43;17.33;;;6.38;;
59756;SDS011;45631;51.962;5.974;2023-10-13T13:46:00;14.82;;;5.50;;
59756;SDS011;45631;51.962;5.974;2023-10-13T13:48:29;15.77;;;5.78;;
59756;SDS011;45631;51.962;5.974;2023-10-13T13:53:32;15.75;;;5.40;;
59756;SDS011;45631;51.962;5.974;2023-10-13T13:56:04;15.32;;;5.47;;
59756;SDS011;45631;51.962;5.974;2023-10-13T13:58:32;17.55;;;5.72;;
59756;SDS011;45631;51.962;5.974;2023-10-13T14:01:02;20.33;;;6.07;;
59756;SDS011;45631;51.962;5.974;2023-10-13T14:03:39;17.45;;;5.55;;
59756;SDS011;45631;51.962;5.974;2023-10-13T14:06:12;18.33;;;5.43;;
59756;SDS011;45631;51.962;5.974;2023-10-13T14:08:45;16.15;;;5.18;;
59756;SDS011;45631;51.962;5.974;2023-10-13T14:11:15;12.70;;;5.20;;
59756;SDS011;45631;51.962;5.974;2023-10-13T14:14:12;13.30;;;4.50;;
59756;SDS011;45631;51.962;5.974;2023-10-13T14:16:57;17.92;;;5.18;;
59756;SDS011;45631;51.962;5.974;2023-10-13T14:19:34;15.13;;;5.13;;
59756;SDS011;45631;51.962;5.974;2023-10-13T14:22:08;14.40;;;5.22;;
59756;SDS011;45631;51.962;5.974;2023-10-13T14:24:41;13.38;;;5.00;;
59756;SDS011;45631;51.962;5.974;2023-10-13T14:29:44;16.50;;;4.97;;
59756;SDS011;45631;51.962;5.974;2023-10-13T14:32:15;17.83;;;5.20;;
59756;SDS011;45631;51.962;5.974;2023-10-13T14:34:43;16.30;;;4.82;;
59756;SDS011;45631;51.962;5.974;2023-10-13T14:37:15;14.23;;;5.35;;
59756;SDS011;45631;51.962;5.974;2023-10-13T14:39:53;17.20;;;4.90;;
59756;SDS011;45631;51.962;5.974;2023-10-13T14:42:24;14.93;;;4.78;;
59756;SDS011;45631;51.962;5.974;2023-10-13T14:44:53;13.38;;;4.85;;
59756;SDS011;45631;51.962;5.974;2023-10-13T14:47:25;17.02;;;5.70;;
59756;SDS011;45631;51.962;5.974;2023-10-13T14:49:54;18.35;;;5.70;;
59756;SDS011;45631;51.962;5.974;2023-10-13T14:54:59;13.82;;;5.15;;
59756;SDS011;45631;51.962;5.974;2023-10-13T14:57:27;13.57;;;5.30;;
59756;SDS011;45631;51.962;5.974;2023-10-13T14:59:55;12.82;;;5.13;;
59756;SDS011;45631;51.962;5.974;2023-10-13T15:02:25;14.70;;;5.57;;
59756;SDS011;45631;51.962;5.974;2023-10-13T15:04:54;14.27;;;5.30;;
59756;SDS011;45631;51.962;5.974;2023-10-13T15:07:24;12.60;;;5.30;;
59756;SDS011;45631;51.962;5.974;2023-10-13T15:09:57;20.98;;;5.68;;
59756;SDS011;45631;51.962;5.974;2023-10-13T15:12:25;19.65;;;5.32;;
59756;SDS011;45631;51.962;5.974;2023-10-13T15:14:55;14.80;;;5.22;;
59756;SDS011;45631;51.962;5.974;2023-10-13T15:17:27;16.98;;;4.90;;
59756;SDS011;45631;51.962;5.974;2023-10-13T15:19:56;14.20;;;5.03;;
59756;SDS011;45631;51.962;5.974;2023-10-13T15:22:26;16.40;;;4.95;;
59756;SDS011;45631;51.962;5.974;2023-10-13T15:24:54;14.18;;;5.63;;
59756;SDS011;45631;51.962;5.974;2023-10-13T15:27:36;15.30;;;5.60;;
59756;SDS011;45631;51.962;5.974;2023-10-13T15:30:08;12.88;;;5.60;;
59756;SDS011;45631;51.962;5.974;2023-10-13T15:32:48;13.65;;;5.22;;
59756;SDS011;45631;51.962;5.974;2023-10-13T15:35:17;14.77;;;5.65;;
59756;SDS011;45631;51.962;5.974;2023-10-13T15:37:45;16.08;;;5.50;;
59756;SDS011;45631;51.962;5.974;2023-10-13T15:40:15;14.07;;;5.18;;
59756;SDS011;45631;51.962;5.974;2023-10-13T15:42:43;18.02;;;6.10;;
59756;SDS011;45631;51.962;5.974;2023-10-13T15:45:13;14.77;;;5.75;;
59756;SDS011;45631;51.962;5.974;2023-10-13T15:47:44;15.93;;;6.40;;